Time;durP1;ratioP1;P1;durP2;ratioP2;P2;SDS_P1;SDS_P2;PMS_P1;PMS_P2;Temp;Humidity;BMP_temperature;BMP_pressure;BME280_temperature;BME280_humidity;BME280_pressure;Samples;Min_cycle;Max_cycle;Signal;HPM_P1;HPM_P2
2023/12/20 00:01:37;;;;;;;1.27;1.20;;;;;;;0.90;100.00;94990.59;5006023;28;20247;-75
2023/12/20 00:04:04;;;;;;;1.17;1.08;;;;;;;0.81;100.00;94986.81;5004637;28;20205;-74
2023/12/20 00:06:31;;;;;;;1.17;1.05;;;;;;;0.89;100.00;94989.00;5003427;28;20210;-73
2023/12/20 00:08:58;;;;;;;0.43;0.43;;;;;;;0.97;100.00;94980.47;5003153;28;20299;-75
2023/12/20 00:11:27;;;;;;;2.40;1.35;;;;;;;0.96;100.00;94976.22;5003079;28;20292;-75
2023/12/20 00:13:54;;;;;;;1.00;1.00;;;;;;;0.98;100.00;94976.75;5004058;28;20617;-74
2023/12/20 00:16:20;;;;;;;2.00;1.85;;;;;;;0.99;100.00;94981.03;5003478;28;20202;-73
2023/12/20 00:18:47;;;;;;;2.45;2.00;;;;;;;0.95;100.00;94977.31;5004296;28;20202;-75
2023/12/20 00:21:14;;;;;;;1.05;1.00;;;;;;;1.04;100.00;94975.75;5003681;28;20206;-74
2023/12/20 00:23:41;;;;;;;1.13;1.10;;;;;;;0.93;100.00;94960.75;5002646;28;20287;-76
2023/12/20 00:26:08;;;;;;;0.20;0.20;;;;;;;0.98;100.00;94963.44;5007399;28;20213;-75
2023/12/20 00:28:36;;;;;;;1.35;1.30;;;;;;;0.94;100.00;94965.03;5004366;28;20206;-72
2023/12/20 00:31:03;;;;;;;1.52;1.27;;;;;;;1.05;100.00;94961.34;5003578;28;20222;-75
2023/12/20 00:33:29;;;;;;;1.27;0.88;;;;;;;1.05;100.00;94953.34;5002145;28;20201;-75
2023/12/20 00:35:56;;;;;;;0.50;0.50;;;;;;;0.88;100.00;94956.19;5000980;28;20217;-74
2023/12/20 00:38:23;;;;;;;1.42;1.35;;;;;;;0.79;100.00;94948.94;5008683;28;20221;-74
2023/12/20 00:40:50;;;;;;;1.13;1.02;;;;;;;0.92;100.00;94949.28;5000209;28;20202;-74
2023/12/20 00:43:17;;;;;;;4.05;3.60;;;;;;;0.87;100.00;94943.09;5003944;28;20676;-73
2023/12/20 00:45:46;;;;;;;0.95;0.95;;;;;;;0.85;100.00;94940.69;4996808;28;20204;-72
2023/12/20 00:48:12;;;;;;;0.85;0.85;;;;;;;0.83;100.00;94936.69;5004867;28;20212;-72
2023/12/20 00:50:39;;;;;;;4.28;1.02;;;;;;;0.87;100.00;94927.09;5002367;28;20202;-72
2023/12/20 00:53:06;;;;;;;1.25;1.25;;;;;;;0.92;100.00;94935.16;5000625;28;20571;-72
2023/12/20 00:55:33;;;;;;;2.03;1.92;;;;;;;0.92;100.00;94935.16;5006783;28;20277;-73
2023/12/20 00:58:00;;;;;;;0.82;0.82;;;;;;;0.82;100.00;94935.09;5002936;28;20562;-72
2023/12/20 01:00:27;;;;;;;0.50;0.50;;;;;;;0.84;100.00;94935.63;5001732;28;20205;-74
2023/12/20 01:02:56;;;;;;;1.08;1.02;;;;;;;0.75;100.00;94923.84;5004449;28;20222;-72
2023/12/20 01:05:23;;;;;;;1.27;1.27;;;;;;;0.77;100.00;94919.88;5005608;28;20224;-72
2023/12/20 01:07:50;;;;;;;0.30;0.30;;;;;;;0.68;100.00;94924.88;5001462;28;20252;-72
2023/12/20 01:10:20;;;;;;;1.70;1.60;;;;;;;0.74;100.00;94914.25;5006518;28;20260;-72
2023/12/20 01:12:47;;;;;;;0.32;0.32;;;;;;;0.81;100.00;94912.16;5003479;28;20627;-71
2023/12/20 01:15:13;;;;;;;1.58;1.48;;;;;;;0.92;100.00;94908.47;5004396;28;20244;-71
2023/12/20 01:17:40;;;;;;;2.03;0.88;;;;;;;0.84;100.00;94906.28;5004833;28;20201;-71
2023/12/20 01:20:09;;;;;;;12.00;4.13;;;;;;;0.79;100.00;94903.63;5007934;28;20205;-71
2023/12/20 01:22:36;;;;;;;13.10;4.95;;;;;;;0.76;100.00;94904.13;5005507;28;20225;-69
2023/12/20 01:25:03;;;;;;;14.60;5.70;;;;;;;0.85;100.00;94895.38;5002865;28;20221;-72
2023/12/20 01:27:30;;;;;;;13.25;5.63;;;;;;;0.93;100.00;94894.88;4996008;28;20249;-72
2023/12/20 01:29:57;;;;;;;12.85;5.15;;;;;;;0.93;100.00;94888.75;5003480;28;20220;-71
2023/12/20 01:32:24;;;;;;;8.55;4.90;;;;;;;0.90;100.00;94886.59;5005643;28;20225;-70
2023/12/20 01:34:51;;;;;;;17.17;6.75;;;;;;;0.92;100.00;94887.94;5000460;28;20593;-70
2023/12/20 01:37:19;;;;;;;9.25;4.18;;;;;;;0.87;100.00;94879.91;5003071;28;20209;-72
2023/12/20 01:39:46;;;;;;;1.20;1.13;;;;;;;0.81;100.00;94880.97;5006076;28;20214;-70
2023/12/20 01:42:13;;;;;;;0.30;0.30;;;;;;;0.66;100.00;94879.03;5000090;28;20221;-73
2023/12/20 01:44:40;;;;;;;0.75;0.75;;;;;;;0.59;100.00;94867.78;5004142;28;20212;-72
2023/12/20 01:47:06;;;;;;;0.40;0.40;;;;;;;0.47;100.00;94874.41;5000930;28;20564;-71
2023/12/20 01:49:34;;;;;;;1.08;1.00;;;;;;;0.48;100.00;94865.34;5008523;28;20217;-71
2023/12/20 01:52:00;;;;;;;0.82;0.82;;;;;;;0.55;100.00;94860.56;4998604;28;20665;-72
2023/12/20 01:54:29;;;;;;;1.85;1.48;;;;;;;0.74;100.00;94850.25;5002561;28;20220;-73
2023/12/20 01:56:56;;;;;;;1.00;1.00;;;;;;;0.65;100.00;94850.78;5002456;28;20217;-73
2023/12/20 01:59:23;;;;;;;19.70;1.55;;;;;;;0.57;100.00;94848.59;5004549;28;20224;-73
2023/12/20 02:01:50;;;;;;;0.30;0.30;;;;;;;0.39;100.00;94851.72;5000150;28;20197;-72
2023/12/20 02:04:17;;;;;;;1.08;1.02;;;;;;;0.24;100.00;94854.28;5001414;28;20307;-71
2023/12/20 02:06:47;;;;;;;0.20;0.20;;;;;;;0.24;100.00;94848.97;5004521;28;20209;-72
2023/12/20 02:09:13;;;;;;;0.20;0.20;;;;;;;0.29;100.00;94844.44;5002305;28;21092;-73
2023/12/20 02:11:42;;;;;;;0.50;0.50;;;;;;;0.27;100.00;94843.13;5000429;28;20205;-72
2023/12/20 02:14:09;;;;;;;0.40;0.40;;;;;;;0.24;100.00;94836.44;5002493;28;20216;-72
2023/12/20 02:16:36;;;;;;;1.10;1.10;;;;;;;0.25;100.00;94839.91;5006222;28;20202;-73
2023/12/20 02:19:05;;;;;;;0.57;0.57;;;;;;;0.19;100.00;94831.06;5003540;28;20267;-71
2023/12/20 02:21:35;;;;;;;0.40;0.40;;;;;;;0.08;100.00;94825.94;5004997;28;20612;-71
2023/12/20 02:24:02;;;;;;;0.50;0.50;;;;;;;0.16;100.00;94830.78;5001984;28;20237;-71
2023/12/20 02:26:29;;;;;;;0.95;0.95;;;;;;;0.27;100.00;94827.91;5006727;28;20212;-72
2023/12/20 02:28:56;;;;;;;0.63;0.63;;;;;;;0.07;100.00;94822.47;5007052;28;20202;-72
2023/12/20 02:31:23;;;;;;;0.40;0.40;;;;;;;0.29;100.00;94830.31;4999983;28;20201;-72
2023/12/20 02:33:50;;;;;;;0.30;0.30;;;;;;;0.25;100.00;94813.28;5001742;28;20281;-73
2023/12/20 02:36:16;;;;;;;2.83;1.63;;;;;;;0.28;100.00;94812.75;5004972;28;20716;-72
2023/12/20 02:38:45;;;;;;;0.85;0.85;;;;;;;0.42;100.00;94808.53;5001399;28;20205;-72
2023/12/20 02:41:11;;;;;;;1.42;1.00;;;;;;;0.34;100.00;94801.06;5000228;28;20208;-74
2023/12/20 02:43:38;;;;;;;0.40;0.40;;;;;;;0.16;100.00;94793.50;5000656;28;20224;-72
2023/12/20 02:46:05;;;;;;;0.65;0.65;;;;;;;0.19;100.00;94798.31;4998827;28;20214;-75
2023/12/20 02:48:32;;;;;;;0.30;0.30;;;;;;;0.30;100.00;94799.97;5003647;28;20217;-73
2023/12/20 02:50:58;;;;;;;0.50;0.40;;;;;;;0.25;100.00;94807.94;5004815;28;20205;-74
2023/12/20 02:53:25;;;;;;;0.20;0.20;;;;;;;0.11;100.00;94806.81;5003204;28;20205;-72
2023/12/20 02:55:53;;;;;;;5.05;1.10;;;;;;;-0.04;100.00;94797.66;5000761;28;20625;-71
2023/12/20 02:58:20;;;;;;;2.17;2.05;;;;;;;-0.08;100.00;94809.88;5006343;28;20662;-73
2023/12/20 03:00:47;;;;;;;0.20;0.20;;;;;;;0.10;100.00;94805.19;5002392;28;20209;-72
2023/12/20 03:03:14;;;;;;;10.38;5.03;;;;;;;0.30;100.00;94805.28;4999807;28;20228;-72
2023/12/20 03:05:41;;;;;;;0.95;0.95;;;;;;;0.37;100.00;94800.56;5001753;28;20206;-73
2023/12/20 03:08:07;;;;;;;0.47;0.47;;;;;;;0.41;100.00;94801.59;5002975;28;20243;-72
2023/12/20 03:10:34;;;;;;;10.57;4.57;;;;;;;0.32;100.00;94792.53;5002754;28;20255;-72
2023/12/20 03:13:02;;;;;;;8.73;4.25;;;;;;;0.37;100.00;94789.88;5001281;28;20209;-72
2023/12/20 03:15:29;;;;;;;14.90;6.53;;;;;;;0.29;100.00;94799.16;5003716;28;20205;-71
2023/12/20 03:17:56;;;;;;;16.50;6.13;;;;;;;0.16;100.00;94798.81;5001218;28;20212;-72
2023/12/20 03:20:23;;;;;;;11.63;5.10;;;;;;;0.26;100.00;94799.69;5003551;28;20213;-72
2023/12/20 03:22:50;;;;;;;11.70;5.00;;;;;;;0.36;100.00;94790.94;5001370;28;20224;-71
2023/12/20 03:25:16;;;;;;;0.80;0.80;;;;;;;0.50;100.00;94799.28;5002172;28;20590;-72
2023/12/20 03:27:43;;;;;;;0.70;0.70;;;;;;;0.39;100.00;94786.97;4999988;28;20638;-72
2023/12/20 03:30:12;;;;;;;0.20;0.20;;;;;;;0.28;100.00;94770.13;4997593;28;20202;-71
2023/12/20 03:32:39;;;;;;;9.95;5.07;;;;;;;0.39;100.00;94781.63;5005118;28;20197;-72
2023/12/20 03:35:07;;;;;;;11.63;4.07;;;;;;;0.13;100.00;94784.19;5003968;28;21246;-72
2023/12/20 03:37:33;;;;;;;8.75;4.93;;;;;;;0.07;100.00;94784.41;5004464;28;20616;-72
2023/12/20 03:40:00;;;;;;;10.85;4.15;;;;;;;0.04;100.00;94787.56;4998677;28;20813;-72
2023/12/20 03:42:27;;;;;;;11.63;5.60;;;;;;;-0.08;100.00;94783.25;4999066;28;20558;-72
2023/12/20 03:44:54;;;;;;;8.95;4.85;;;;;;;-0.04;100.00;94784.34;4998530;28;20217;-72
2023/12/20 03:47:22;;;;;;;9.02;4.30;;;;;;;-0.01;100.00;94783.84;5001603;28;20209;-71
2023/12/20 03:49:49;;;;;;;12.23;5.85;;;;;;;0.14;100.00;94779.63;4999927;28;20205;-73
2023/12/20 03:52:16;;;;;;;9.77;4.30;;;;;;;0.12;100.00;94776.44;5000008;28;20629;-74
2023/12/20 03:54:43;;;;;;;3.63;2.40;;;;;;;-0.07;100.00;94778.72;5001188;28;20213;-74
2023/12/20 03:57:10;;;;;;;0.88;0.88;;;;;;;-0.05;100.00;94777.41;5005775;28;20202;-74
2023/12/20 03:59:38;;;;;;;0.80;0.80;;;;;;;-0.18;100.00;94777.88;5005365;28;20535;-74
2023/12/20 04:02:05;;;;;;;9.23;4.30;;;;;;;0.00;100.00;94772.09;4995053;28;20205;-75
2023/12/20 04:04:33;;;;;;;7.57;3.72;;;;;;;0.10;100.00;94767.91;5005721;28;20246;-74
2023/12/20 04:07:00;;;;;;;8.40;3.95;;;;;;;0.09;100.00;94766.31;5002457;28;20573;-76
2023/12/20 04:09:27;;;;;;;6.43;4.47;;;;;;;0.19;100.00;94764.50;5005865;28;20232;-74
2023/12/20 04:11:53;;;;;;;7.53;4.65;;;;;;;0.19;100.00;94745.06;5001125;28;20553;-74
2023/12/20 04:14:20;;;;;;;9.15;3.97;;;;;;;1.87;100.00;94744.22;5005112;28;20612;-74
2023/12/20 04:16:47;;;;;;;8.82;5.10;;;;;;;4.00;100.00;94737.56;5001551;28;20259;-74
2023/12/20 04:19:14;;;;;;;0.75;0.75;;;;;;;2.41;100.00;94738.16;5005226;28;20215;-73
2023/12/20 04:21:42;;;;;;;0.30;0.30;;;;;;;1.48;100.00;94745.84;5006601;28;20209;-73
2023/12/20 04:24:09;;;;;;;0.90;0.88;;;;;;;1.22;100.00;94743.19;5001563;28;20222;-74
2023/12/20 04:26:36;;;;;;;3.30;0.75;;;;;;;0.75;100.00;94739.91;5007007;28;20255;-74
2023/12/20 04:29:02;;;;;;;1.50;1.30;;;;;;;0.46;100.00;94735.03;5001942;28;20194;-73
2023/12/20 04:31:29;;;;;;;1.30;1.27;;;;;;;0.34;100.00;94743.25;5005639;28;20213;-73
2023/12/20 04:33:56;;;;;;;0.45;0.45;;;;;;;-0.12;100.00;94733.44;5005788;28;20205;-73
2023/12/20 04:36:25;;;;;;;0.90;0.57;;;;;;;-0.09;100.00;94731.06;5005663;28;20212;-73
2023/12/20 04:38:53;;;;;;;0.25;0.25;;;;;;;-0.17;100.00;94728.91;5006861;28;20284;-73
2023/12/20 04:41:20;;;;;;;0.80;0.80;;;;;;;-0.19;100.00;94725.69;5005265;28;20212;-73
2023/12/20 04:43:46;;;;;;;0.57;0.57;;;;;;;-0.21;100.00;94725.16;5001244;28;20220;-74
2023/12/20 04:46:13;;;;;;;0.43;0.43;;;;;;;-0.45;100.00;94734.59;5013651;28;20209;-73
2023/12/20 04:48:40;;;;;;;1.60;1.50;;;;;;;-0.38;100.00;94735.94;5012715;28;20213;-73
2023/12/20 04:51:07;;;;;;;0.47;0.47;;;;;;;-0.45;100.00;94729.25;5012895;28;20219;-73
2023/12/20 04:53:34;;;;;;;17.10;5.47;;;;;;;-0.35;100.00;94724.00;5012428;28;20642;-73
2023/12/20 04:56:02;;;;;;;10.60;4.60;;;;;;;-0.56;100.00;94728.41;5012742;28;20205;-74
2023/12/20 04:58:28;;;;;;;1.10;1.10;;;;;;;-0.70;100.00;94727.22;5013625;28;20581;-73
2023/12/20 05:00:55;;;;;;;11.57;4.75;;;;;;;-0.84;100.00;94718.88;5012434;28;20723;-75
2023/12/20 05:03:22;;;;;;;12.85;6.18;;;;;;;-0.61;100.00;94719.56;5010895;28;20689;-75
2023/12/20 05:05:49;;;;;;;10.23;5.25;;;;;;;-0.55;100.00;94721.22;5002777;28;20654;-75
2023/12/20 05:08:16;;;;;;;16.20;5.32;;;;;;;-0.33;100.00;94721.88;4997876;28;20251;-75
2023/12/20 05:10:43;;;;;;;10.40;5.28;;;;;;;-0.38;100.00;94716.53;5002317;28;20292;-75
2023/12/20 05:13:11;;;;;;;13.95;5.30;;;;;;;-0.29;100.00;94717.66;5006636;28;20209;-75
2023/12/20 05:15:38;;;;;;;18.52;8.40;;;;;;;-0.49;100.00;94712.19;4992463;28;20210;-76
2023/12/20 05:18:05;;;;;;;16.63;6.88;;;;;;;-0.82;100.00;94703.44;4998029;28;20280;-74
2023/12/20 05:20:32;;;;;;;17.13;8.63;;;;;;;-1.10;100.00;94717.06;5012763;28;20658;-75
2023/12/20 05:22:58;;;;;;;19.13;11.35;;;;;;;-0.90;100.00;94703.94;4994943;28;20213;-74
2023/12/20 05:25:25;;;;;;;17.85;8.55;;;;;;;-0.72;100.00;94703.56;5004779;28;20232;-74
2023/12/20 05:27:52;;;;;;;19.27;9.00;;;;;;;-0.61;100.00;94708.94;5012852;28;20209;-74
2023/12/20 05:30:20;;;;;;;25.92;11.07;;;;;;;-1.02;100.00;94692.69;5001458;28;20212;-75
2023/12/20 05:32:47;;;;;;;42.25;14.07;;;;;;;-1.30;100.00;94700.94;5012095;28;20209;-75
2023/12/20 05:35:15;;;;;;;22.98;10.38;;;;;;;-1.04;100.00;94700.09;5006484;28;20259;-75
2023/12/20 05:37:42;;;;;;;17.45;7.68;;;;;;;-0.98;100.00;94698.28;5012571;28;20308;-75
2023/12/20 05:40:10;;;;;;;21.25;12.27;;;;;;;-1.04;100.00;94697.44;5012966;28;20308;-74
2023/12/20 05:42:37;;;;;;;21.20;11.18;;;;;;;-1.09;100.00;94697.38;5012514;28;20209;-75
2023/12/20 05:45:05;;;;;;;22.45;9.50;;;;;;;-1.23;100.00;94696.22;5000093;28;20238;-75
2023/12/20 05:47:34;;;;;;;23.35;9.45;;;;;;;-1.34;100.00;94699.81;4993023;28;20478;-75
2023/12/20 05:50:00;;;;;;;26.60;9.05;;;;;;;-1.40;100.00;94684.91;4993877;28;20547;-74
2023/12/20 05:52:28;;;;;;;18.80;9.75;;;;;;;-1.25;100.00;94687.72;4993048;28;20209;-75
2023/12/20 05:54:55;;;;;;;29.83;11.38;;;;;;;-1.02;100.00;94687.38;5007695;28;20328;-74
2023/12/20 05:57:23;;;;;;;19.70;9.07;;;;;;;-1.06;100.00;94686.25;5009350;28;20244;-74
2023/12/20 05:59:50;;;;;;;24.85;9.00;;;;;;;-1.17;100.00;94685.38;5001889;28;20201;-74
2023/12/20 06:02:17;;;;;;;16.67;9.48;;;;;;;-1.24;100.00;94668.06;4998203;28;20303;-76
2023/12/20 06:04:46;;;;;;;13.90;6.70;;;;;;;-1.48;100.00;94676.31;5000083;28;20225;-76
2023/12/20 06:07:13;;;;;;;23.98;10.85;;;;;;;-1.66;100.00;94686.50;5004363;28;20225;-75
2023/12/20 06:09:40;;;;;;;24.23;12.15;;;;;;;-1.99;100.00;94666.22;5014221;28;20573;-75
2023/12/20 06:12:12;;;;;;;19.83;9.88;;;;;;;-2.04;100.00;94674.94;5003337;28;20208;-75
2023/12/20 06:14:39;;;;;;;19.17;9.60;;;;;;;-1.92;100.00;94677.47;5009065;28;20271;-75
2023/12/20 06:17:06;;;;;;;20.05;8.25;;;;;;;-1.57;100.00;94680.50;5002827;28;20209;-74
2023/12/20 06:19:33;;;;;;;21.08;10.95;;;;;;;-1.51;100.00;94684.00;4992978;28;20217;-74
2023/12/20 06:22:01;;;;;;;26.98;12.73;;;;;;;-1.40;100.00;94679.59;4992470;28;20572;-74
2023/12/20 06:24:33;;;;;;;17.30;8.55;;;;;;;-1.26;100.00;94678.94;4992751;28;20590;-75
2023/12/20 06:27:00;;;;;;;21.33;10.68;;;;;;;-0.86;100.00;94691.75;4992652;28;20228;-76
2023/12/20 06:29:27;;;;;;;18.02;9.90;;;;;;;-0.68;100.00;94687.09;5006600;28;20212;-75
2023/12/20 06:31:54;;;;;;;18.52;9.10;;;;;;;-0.48;100.00;94687.22;5011957;28;20223;-75
2023/12/20 06:34:21;;;;;;;17.48;9.60;;;;;;;-0.91;100.00;94683.72;5012727;28;20205;-75
2023/12/20 06:36:48;;;;;;;28.73;10.40;;;;;;;-0.74;100.00;94683.59;5011970;28;20215;-77
2023/12/20 06:39:16;;;;;;;19.42;10.52;;;;;;;-0.33;100.00;94687.28;5011159;28;20212;-76
2023/12/20 06:41:43;;;;;;;25.25;11.07;;;;;;;-0.88;100.00;94671.78;5010870;28;20584;-76
2023/12/20 06:44:10;;;;;;;21.27;11.15;;;;;;;-0.72;100.00;94671.63;5011445;28;20693;-75
2023/12/20 06:46:37;;;;;;;21.27;10.25;;;;;;;-0.91;100.00;94667.78;5011542;28;20236;-76
2023/12/20 06:49:04;;;;;;;24.63;10.75;;;;;;;-0.38;100.00;94660.66;5011099;28;20303;-74
2023/12/20 06:51:32;;;;;;;24.42;10.13;;;;;;;-0.18;100.00;94655.44;5011693;28;20231;-76
2023/12/20 06:54:02;;;;;;;1.20;1.20;;;;;;;-0.45;100.00;94668.06;4999921;28;20255;-76
2023/12/20 06:56:31;;;;;;;2.15;1.85;;;;;;;-0.10;100.00;94662.09;5000367;28;20288;-76
2023/12/20 06:58:59;;;;;;;1.35;1.30;;;;;;;0.25;100.00;94659.59;5010983;28;20205;-73
2023/12/20 07:01:26;;;;;;;1.27;1.17;;;;;;;0.30;100.00;94653.44;5009045;28;20293;-75
2023/12/20 07:03:53;;;;;;;1.55;1.20;;;;;;;-0.11;100.00;94645.34;4989983;28;20628;-76
2023/12/20 07:06:21;;;;;;;1.20;0.68;;;;;;;0.08;100.00;94647.53;4996691;28;20300;-76
2023/12/20 07:08:48;;;;;;;1.95;1.30;;;;;;;0.51;100.00;94652.44;4995562;28;20261;-76
2023/12/20 07:11:15;;;;;;;2.28;2.08;;;;;;;0.91;100.00;94642.88;4992662;28;20205;-75
2023/12/20 07:13:43;;;;;;;3.33;2.40;;;;;;;1.12;100.00;94652.47;5011034;28;20687;-74
2023/12/20 07:16:10;;;;;;;1.75;1.67;;;;;;;0.95;100.00;94641.31;5002310;28;20212;-75
2023/12/20 07:18:37;;;;;;;0.47;0.47;;;;;;;0.80;100.00;94635.97;5010884;28;20219;-76
2023/12/20 07:21:04;;;;;;;4.28;1.38;;;;;;;0.87;100.00;94633.81;5008004;28;20616;-74
2023/12/20 07:23:31;;;;;;;1.00;1.00;;;;;;;1.04;100.00;94634.34;5001267;28;20217;-74
2023/12/20 07:25:58;;;;;;;1.25;1.00;;;;;;;1.27;100.00;94623.13;5008839;28;20240;-76
2023/12/20 07:28:25;;;;;;;2.72;1.90;;;;;;;1.32;100.00;94625.78;4991785;28;20202;-75
2023/12/20 07:30:54;;;;;;;0.90;0.90;;;;;;;1.52;100.00;94613.44;5004096;28;20557;-74
2023/12/20 07:33:20;;;;;;;0.68;0.68;;;;;;;1.56;99.93;94622.53;4991492;28;20217;-74
2023/12/20 07:35:48;;;;;;;2.80;1.77;;;;;;;1.67;100.00;94622.22;4991531;28;20827;-75
2023/12/20 07:38:17;;;;;;;0.95;0.95;;;;;;;1.70;99.54;94616.34;4991796;28;20309;-75
2023/12/20 07:40:44;;;;;;;0.73;0.73;;;;;;;1.63;100.00;94620.38;4995170;28;20213;-74
2023/12/20 07:43:11;;;;;;;0.40;0.40;;;;;;;1.42;100.00;94623.09;4995496;28;20241;-74
2023/12/20 07:45:38;;;;;;;1.15;1.10;;;;;;;1.23;100.00;94626.59;5013150;28;20693;-75
2023/12/20 07:48:08;;;;;;;0.95;0.95;;;;;;;1.48;100.00;94620.41;5003253;28;20205;-75
2023/12/20 07:50:35;;;;;;;1.00;1.00;;;;;;;1.26;100.00;94621.50;5013464;28;20205;-74
2023/12/20 07:53:03;;;;;;;3.10;2.88;;;;;;;0.99;100.00;94618.34;5002276;28;20213;-74
2023/12/20 07:55:30;;;;;;;1.83;0.98;;;;;;;1.03;100.00;94616.75;5014853;28;20700;-75
2023/12/20 07:57:58;;;;;;;2.25;2.15;;;;;;;1.11;100.00;94623.41;5014711;28;20288;-76
2023/12/20 08:00:27;;;;;;;4.32;2.17;;;;;;;1.32;100.00;94611.63;5015112;28;20228;-76
2023/12/20 08:02:56;;;;;;;1.83;1.67;;;;;;;1.68;100.00;94612.34;4997105;28;20206;-75
2023/12/20 08:05:24;;;;;;;0.68;0.68;;;;;;;2.06;100.00;94603.63;5001087;28;20233;-75
2023/12/20 08:07:51;;;;;;;3.75;3.40;;;;;;;2.04;100.00;94610.34;4994980;28;20687;-75
2023/12/20 08:10:19;;;;;;;0.77;0.77;;;;;;;2.11;100.00;94605.47;4995516;28;20218;-77
2023/12/20 08:12:46;;;;;;;1.30;1.20;;;;;;;1.53;100.00;94599.03;4995321;28;20594;-76
2023/12/20 08:15:12;;;;;;;5.68;4.22;;;;;;;1.50;100.00;94600.41;4994949;28;20233;-76
2023/12/20 08:17:50;;;;;;;0.30;0.30;;;;;;;1.79;100.00;94592.53;4995268;28;20228;-77
2023/12/20 08:20:17;;;;;;;19.65;3.80;;;;;;;1.64;100.00;94584.59;4995572;28;20304;-76
2023/12/20 08:22:54;;;;;;;1.02;1.02;;;;;;;1.66;100.00;94593.13;4996111;28;20565;-74
2023/12/20 08:25:24;;;;;;;1.52;1.50;;;;;;;1.97;100.00;94599.94;5007179;28;20212;-77
2023/12/20 08:27:51;;;;;;;1.98;1.88;;;;;;;1.72;100.00;94578.69;5014831;28;20204;-77
2023/12/20 08:30:21;;;;;;;11.18;3.85;;;;;;;2.08;100.00;94596.16;5002929;28;20582;-77
2023/12/20 08:32:53;;;;;;;1.85;1.73;;;;;;;1.87;100.00;94581.31;4996277;28;20567;-77
2023/12/20 08:35:24;;;;;;;4.93;3.22;;;;;;;1.61;100.00;94569.13;4995064;28;20248;-76
2023/12/20 08:37:55;;;;;;;4.80;4.28;;;;;;;1.46;100.00;94577.19;5003142;28;20232;-76
2023/12/20 08:40:26;;;;;;;1.42;1.33;;;;;;;1.93;100.00;94577.53;5014756;28;20208;-78
2023/12/20 08:42:54;;;;;;;0.98;0.90;;;;;;;1.78;100.00;94564.22;5006476;28;20229;-76
2023/12/20 08:45:24;;;;;;;1.27;1.27;;;;;;;2.05;100.00;94551.28;4995712;28;20281;-79
2023/12/20 08:47:51;;;;;;;2.38;2.28;;;;;;;1.32;100.00;94545.75;5003348;28;20648;-78
2023/12/20 08:50:20;;;;;;;1.10;1.10;;;;;;;1.56;100.00;94561.13;5014845;28;20349;-78
2023/12/20 08:52:46;;;;;;;2.15;2.05;;;;;;;1.33;100.00;94562.53;5004771;28;20209;-79
2023/12/20 08:55:17;;;;;;;1.92;1.83;;;;;;;1.61;100.00;94564.59;5007345;28;20607;-78
2023/12/20 08:57:46;;;;;;;1.20;1.20;;;;;;;2.01;100.00;94552.13;5011062;28;20283;-78
2023/12/20 09:00:16;;;;;;;1.60;0.98;;;;;;;2.30;100.00;94550.34;5009276;28;20280;-77
2023/12/20 09:02:43;;;;;;;0.57;0.57;;;;;;;2.52;100.00;94539.22;5014537;28;20209;-77
2023/12/20 09:05:10;;;;;;;3.83;1.60;;;;;;;2.61;100.00;94534.84;5012621;28;20237;-78
2023/12/20 09:07:37;;;;;;;0.47;0.47;;;;;;;3.11;100.00;94533.63;5014680;28;20249;-77
2023/12/20 09:10:05;;;;;;;1.55;0.93;;;;;;;3.01;100.00;94506.16;4990786;28;20221;-78
2023/12/20 09:12:34;;;;;;;0.77;0.77;;;;;;;3.14;100.00;94500.16;4993075;28;20217;-78
2023/12/20 09:15:02;;;;;;;0.93;0.93;;;;;;;3.48;98.83;94490.09;4993993;28;20213;-79
2023/12/20 09:17:32;;;;;;;0.63;0.63;;;;;;;3.46;95.83;94478.09;5012588;28;20303;-77
2023/12/20 09:20:02;;;;;;;1.90;1.48;;;;;;;3.46;96.63;94473.53;4997613;28;20273;-79
2023/12/20 09:22:29;;;;;;;0.55;0.55;;;;;;;3.91;95.79;94474.03;5009197;28;20656;-77
2023/12/20 09:24:56;;;;;;;0.70;0.70;;;;;;;3.52;96.36;94459.00;5013403;28;20236;-79
2023/12/20 09:27:22;;;;;;;0.82;0.82;;;;;;;3.93;96.02;94463.81;5014821;28;20307;-79
2023/12/20 09:29:51;;;;;;;1.05;1.05;;;;;;;3.77;95.54;94454.38;5014443;28;20562;-79
2023/12/20 09:32:17;;;;;;;0.43;0.43;;;;;;;4.17;94.42;94450.31;5013170;28;20676;-78
2023/12/20 09:34:44;;;;;;;0.75;0.75;;;;;;;3.94;94.23;94443.97;5004965;28;20561;-79
2023/12/20 09:37:11;;;;;;;0.93;0.93;;;;;;;4.25;94.58;94450.44;4996734;28;20553;-78
2023/12/20 09:39:38;;;;;;;0.77;0.77;;;;;;;4.06;92.64;94447.00;5014939;28;20582;-81
2023/12/20 09:42:07;;;;;;;2.25;2.10;;;;;;;3.39;94.55;94432.94;4998075;28;20221;-80
2023/12/20 09:44:35;;;;;;;2.30;1.10;;;;;;;3.03;98.84;94434.44;5005534;28;20240;-78
2023/12/20 09:47:05;;;;;;;0.43;0.43;;;;;;;2.99;99.87;94423.50;4997527;28;20220;-77
2023/12/20 09:49:33;;;;;;;1.75;1.60;;;;;;;2.87;99.77;94414.31;4993741;28;20217;-79
2023/12/20 09:52:02;;;;;;;0.68;0.68;;;;;;;3.14;100.00;94419.88;5010587;28;20569;-78
2023/12/20 09:54:30;;;;;;;0.75;0.75;;;;;;;3.39;97.93;94411.53;5013790;28;20563;-79
2023/12/20 09:56:57;;;;;;;1.33;1.25;;;;;;;3.42;96.98;94413.59;5008117;28;20216;-78
2023/12/20 09:59:24;;;;;;;2.47;2.30;;;;;;;3.58;98.34;94414.19;4994042;28;20566;-80
2023/12/20 10:01:52;;;;;;;1.85;1.75;;;;;;;3.49;96.67;94406.03;5001220;28;20290;-79
2023/12/20 10:04:21;;;;;;;0.75;0.75;;;;;;;3.79;97.08;94417.41;5012948;28;20221;-78
2023/12/20 10:06:47;;;;;;;0.75;0.75;;;;;;;3.70;95.97;94411.09;5019866;28;20553;-79
2023/12/20 10:09:19;;;;;;;1.52;1.52;;;;;;;3.41;97.56;94395.97;4993051;28;20241;-77
2023/12/20 10:11:55;;;;;;;4.35;4.05;;;;;;;3.40;98.37;94396.25;4992929;28;20284;-79
2023/12/20 10:14:24;;;;;;;1.50;1.45;;;;;;;2.89;99.65;94374.66;4992942;28;20649;-79
2023/12/20 10:16:51;;;;;;;1.50;1.40;;;;;;;3.25;100.00;94389.22;5001813;28;20681;-79
2023/12/20 10:19:18;;;;;;;1.17;0.93;;;;;;;3.42;100.00;94378.78;4997191;28;20686;-79
2023/12/20 10:21:47;;;;;;;1.98;0.98;;;;;;;3.93;97.89;94364.69;4992700;28;20214;-79
2023/12/20 10:24:18;;;;;;;6.47;2.92;;;;;;;4.18;98.72;94364.25;5006053;28;20224;-78
2023/12/20 10:26:45;;;;;;;1.52;1.42;;;;;;;4.48;96.33;94359.47;4993112;28;20251;-76
2023/12/20 10:29:12;;;;;;;1.05;1.05;;;;;;;4.77;94.14;94345.78;4992851;28;20216;-79
2023/12/20 10:31:39;;;;;;;1.52;1.05;;;;;;;4.86;93.21;94336.72;4993491;28;20213;-78
2023/12/20 10:34:06;;;;;;;5.65;3.63;;;;;;;5.34;92.53;94330.91;5006224;28;20263;-79
2023/12/20 10:36:36;;;;;;;4.05;3.03;;;;;;;5.35;91.08;94335.19;5011841;28;20219;-77
2023/12/20 10:39:07;;;;;;;5.90;2.63;;;;;;;5.06;90.50;94340.13;4977250;28;20270;-79
2023/12/20 10:41:36;;;;;;;2.28;2.13;;;;;;;5.08;90.48;94335.22;4992451;28;20224;-80
2023/12/20 10:44:04;;;;;;;2.05;1.90;;;;;;;4.97;89.83;94322.00;4992447;28;20225;-79
2023/12/20 10:46:32;;;;;;;8.35;4.72;;;;;;;4.99;90.57;94325.19;4993229;28;20257;-80
2023/12/20 10:49:00;;;;;;;1.70;1.20;;;;;;;4.58;90.43;94313.69;5012490;28;20215;-80
2023/12/20 10:51:29;;;;;;;4.70;2.55;;;;;;;5.03;91.95;94314.66;5001213;28;20216;-79
2023/12/20 10:53:56;;;;;;;0.70;0.70;;;;;;;4.78;91.11;94307.94;5001478;28;20243;-80
2023/12/20 10:56:25;;;;;;;0.52;0.52;;;;;;;4.48;91.45;94308.50;5014730;28;20209;-79
2023/12/20 10:58:52;;;;;;;2.10;2.00;;;;;;;4.36;91.91;94297.47;5015049;28;20565;-80
2023/12/20 11:01:20;;;;;;;1.58;1.48;;;;;;;4.26;92.03;94298.44;5010017;28;20256;-79
2023/12/20 11:03:50;;;;;;;2.33;2.20;;;;;;;4.38;93.64;94297.94;4996056;28;20639;-78
2023/12/20 11:06:29;;;;;;;0.50;0.50;;;;;;;4.12;93.85;94290.38;4995222;28;20536;-79
2023/12/20 11:09:09;;;;;;;3.20;2.78;;;;;;;4.28;95.17;94289.00;4994264;28;20340;-78
2023/12/20 11:11:53;;;;;;;1.92;1.45;;;;;;;4.12;93.99;94284.22;4977241;28;20217;-78
2023/12/20 11:14:25;;;;;;;8.05;3.20;;;;;;;4.01;94.95;94278.25;4998928;28;20423;-77
2023/12/20 11:16:52;;;;;;;3.67;3.38;;;;;;;3.85;96.30;94283.06;5010269;28;20565;-80
2023/12/20 11:19:19;;;;;;;4.10;3.80;;;;;;;3.75;95.91;94263.69;5012921;28;20280;-79
2023/12/20 11:21:47;;;;;;;1.00;1.00;;;;;;;3.72;96.66;94264.28;5018264;28;20211;-79
2023/12/20 11:24:16;;;;;;;2.45;1.08;;;;;;;3.46;97.86;94272.72;4987143;28;20209;-79
2023/12/20 11:26:48;;;;;;;1.05;1.02;;;;;;;3.58;98.15;94262.34;5017836;28;20579;-79
2023/12/20 11:29:35;;;;;;;0.98;0.98;;;;;;;3.78;98.14;94252.41;4997640;28;20220;-79
2023/12/20 11:32:03;;;;;;;0.63;0.63;;;;;;;3.65;99.08;94247.81;5005225;28;20212;-77
2023/12/20 11:34:34;;;;;;;19.70;3.22;;;;;;;3.85;99.11;94226.03;5001185;28;20209;-79